NY Terminal Aviation Weather Discussion (AFD) - Prepared: 746 PM EDT WED APR 23 2014
VFR.

NORTHWEST GUSTS CONTINUE OVERNIGHT HOWEVER DIMINISH SOMEWHAT TO 25 
TO 30 KT. GUSTS INCREASE DURING THE DAY THURSDAY...35 TO 38 
KT...WITH SOME GUSTS IN THE LATE MORNING INTO THE EARLY AFTERNOON
AROUND 40 KT.


5 Day General Aviation Outlook:

.OUTLOOK FOR 00Z FRIDAY THROUGH MONDAY...
.THU NIGHT...NW GUSTS ENDING DURING THE EVENING.
.FRI...VFR. CHC NIGHTTIME -SHRA AND MVFR.
.SAT...VFR. CHC -SHRA AND MVFR.
.SUN...VFR. NW G20-25KT.
.MON...VFR.


NY Metro Terminal Aviation Weather Summary: (Explanation of Color Coding)
NOTE: All Wind Directions are TRUE (add 13 degrees for magnetic directions). Tail and Crosswind Calculations do account for the magnetic deviation of runways.

Click on the Airport Below for Specific Information at that Terminal

TAF Overview JFK TAF LGA TAF EWR TAF TEB TAF HPN TAF ISP TAF

Jump to AirSpace Impacts Section Condensed "lite" version of SPA page
**************************************************************************************
KJFK Terminal Weather: (Wind Directions Are True, Except Where Noted, ADD 13 degrees for Magnetic)

5MIN KJFK 240050Z 32023G32KT 10SM BKN045 09/M02 A2977 
     150 44 -400 330/23G32 RMK AO2 PK WND 33041/2354 SLP082 T00941022
5MIN KJFK 240045Z 32025G35KT 10SM OVC045 09/M02 A2977 
     150 44 -400 330/25G35 RMK AO2 PK WND 33041/2354 SLP082 T00941022
********************************************
****        MAGNETIC DIRECTIONS         ****
********************************************
KJFK 04/24/2014 01:03:13 GMT 330 24 G37KT
KJFK 04/24/2014 01:01:13 GMT 320 23 G32KT
KJFK 04/24/2014 00:59:13 GMT 320 22 KT
KJFK 04/24/2014 00:57:13 GMT 320 20 KT
KJFK 04/24/2014 00:55:13 GMT 330 25 KT
KJFK 04/24/2014 00:53:13 GMT 320 26 KT
KJFK 04/24/2014 00:51:13 GMT 310 30 KT
KJFK 04/24/2014 00:49:13 GMT 320 26 KT
KJFK 04/24/2014 00:47:14 GMT 330 23 KT
KJFK 04/24/2014 00:45:14 GMT 330 25 KT
SAUS70 KJFK 240100 RRI
METAR KJFK 240051Z 31025G31KT 10SM BKN045 09/M02 A2977 RMK AO2 PK WND
     33041/2354 SLP081 T00941022
FTNA35 KJFK 232337 RRF
KJFK 232331Z 2400/2506 32021G34KT P6SM SCT060
     FM240200 32019G28KT P6SM SKC
     FM241400 32024G36KT P6SM SKC
     FM242200 33018G30KT P6SM SKC
     FM250200 33012G18KT P6SM SKC
KJFK FCSTER COMMENTS: WINDS TO THE RIGHT OF 310 TRUE THURSDAY. GUSTS 
INCREASE AND AT TIMES MAY APPROACH 40 KT.

jfk

JFK Hourly Forecast Temperature (C)

JFK Hourly TMPS
**************************************************************************************
KLGA Terminal Weather: (Wind Directions Are True, Except Where Noted, ADD 13 degrees for Magnetic)

5MIN KLGA 240050Z 31023G34KT 10SM BKN048 08/M02 A2977 
     160 49 -500 320/23G34 RMK AO2 PK WND 31040/0002 SLP082 T00831017
5MIN KLGA 240045Z 32026G34KT 10SM BKN048 08/M02 A2977 
     160 49 -500 340/26G34 RMK AO2 PK WND 31040/0002 SLP081 T00831017
********************************************
****        MAGNETIC DIRECTIONS         ****
********************************************
KLGA 04/24/2014 01:04:01 GMT 330 27 G35KT
KLGA 04/24/2014 01:02:01 GMT 340 25 G35KT
KLGA 04/24/2014 00:59:52 GMT 340 24 G35KT
KLGA 04/24/2014 00:57:52 GMT 330 30 G35KT
KLGA 04/24/2014 00:55:52 GMT 330 30 G35KT
KLGA 04/24/2014 00:53:51 GMT 330 28 G37KT
KLGA 04/24/2014 00:51:51 GMT 330 32 G37KT
KLGA 04/24/2014 00:50:02 GMT 340 26 G37KT
KLGA 04/24/2014 00:47:51 GMT 340 30 G37KT
KLGA 04/24/2014 00:45:51 GMT 350 30 G37KT
SAUS70 KLGA 240100
METAR KLGA 240051Z 31023G34KT 10SM BKN048 08/M02 A2977 RMK AO2 PK WND
     31040/0002 SLP081 T00831017
FTUS80 KLGA 232333 RRB
KLGA 232331Z 2400/2424 33023G34KT P6SM FEW060
     FM240200 33020G29KT P6SM SKC
     FM241400 33026G37KT P6SM SKC
     FM242200 34017G29KT P6SM SKC
KLGA FCSTER COMMENTS: WINDS TO THE RIGHT OF 310 TRUE THURSDAY. GUSTS 
INCREASE AND AT TIMES MAY APPROACH 40 KT.

lga


**************************************************************************************

KEWR Terminal Weather: (Wind Directions Are True, Except Where Noted, ADD 13 degrees for Magnetic)

5MIN KEWR 240050Z 31020G36KT 10SM BKN045 09/M02 A2980 
     130 45 -500 330/20G36 RMK AO2 PK WND 31036/0043 SLP092 T00891022 $
5MIN KEWR 240045Z 32022G36KT 10SM BKN045 09/M02 A2980 
     130 44 -400 330/22G36 RMK AO2 PK WND 31036/0043 SLP090 T00941022 $
********************************************
****        MAGNETIC DIRECTIONS         ****
********************************************
KEWR 04/24/2014 01:03:46 GMT 340 20 KT
KEWR 04/24/2014 01:01:46 GMT 330 23 KT
KEWR 04/24/2014 00:59:46 GMT 330 21 KT
KEWR 04/24/2014 00:57:46 GMT 330 21 KT
KEWR 04/24/2014 00:55:46 GMT 330 23 G34KT
KEWR 04/24/2014 00:53:46 GMT 320 22 KT
KEWR 04/24/2014 00:51:46 GMT 320 23 KT
KEWR 04/24/2014 00:49:46 GMT 330 22 KT
KEWR 04/24/2014 00:47:46 GMT 330 24 KT
KEWR 04/24/2014 00:45:46 GMT 330 29 KT
SAUS70 KEWR 240100 RRA
METAR KEWR 240051Z 31020G36KT 10SM BKN045 09/M02 A2980 RMK AO2 PK WND
     31036/0043 SLP092 T00891022 $
FTUS80 KEWR 232333 RRA
KEWR 232331Z 2400/2506 33021G34KT P6SM FEW050
     FM240200 32017G25KT P6SM SKC
     FM241400 32024G34KT P6SM SKC
     FM242200 32017G27KT P6SM SKC
     FM250200 34012KT P6SM SKC
KEWR FCSTER COMMENTS: WINDS TO THE RIGHT OF 310 TRUE THURSDAY. GUSTS 
INCREASE AND AT TIMES MAY APPROACH 40 KT.

ewr
Afternoon EWR Haze Potential Forecast: KEWR Haze Forecast Not Available at This Time
IS NOT AVAILABLE AT THIS TIME


******************************************************************************

KTEB Terminal Weather:
SAUS80 KTEB 240100
METAR KTEB 240051Z 31020G29KT 10SM OVC045 09/M02 A2979 RMK AO2 PK WND
     31032/0009 SLP089 T00891017
FTUS80 KTEB 232333 RRC
KTEB 232331Z 2400/2424 32017G27KT P6SM SCT040
     FM240100 32014G22KT P6SM SKC
     FM241400 33021G32KT P6SM SKC
     FM242200 33016G23KT P6SM SKC
KTEB FCSTER COMMENTS: WINDS TO THE RIGHT OF 310 TRUE THURSDAY. GUSTS 
INCREASE TO AROUND 35 KT.

teb

 


**************************************************************************************

KHPN Terminal Weather:
SAUS70 KHPN 240100
METAR KHPN 240056Z 32011G26KT 10SM BKN040 07/M01 A2975 RMK AO2 PK WND
     31031/0005 SLP077 T00721011
FTUS80 KHPN 232333 RRA
KHPN 232331Z 2400/2424 31019G27KT P6SM FEW040
     FM240200 32016G25KT P6SM SKC
     FM241400 32024G35KT P6SM SKC
     FM242200 33018G26KT P6SM SKC AMD NOT SKED
KHPN FCSTER COMMENTS: WINDS TO THE RIGHT OF 310 TRUE THURSDAY. GUSTS 
INCREASE TO 35 TO 40 KT. 

HPN


******************************************************************************

KISP Terminal Weather:
SAUS70 KISP 240100
METAR KISP 240056Z 31015G24KT 10SM BKN045 09/01 A2971 RMK AO2 PK WND
     32033/0018 SLP060 T00940006
FTUS80 KISP 232333 RRA
KISP 232331Z 2400/2424 32017G30KT P6SM BKN050
     FM240200 32015G23KT P6SM SKC
     FM241400 32026G38KT P6SM SKC
     FM242200 32020G31KT P6SM SKC
KISP FCSTER COMMENTS: WINDS TO THE RIGHT OF 310 TRUE THURSDAY. GUSTS 
INCREASE AND AT TIMES MAY APPROACH 40 KT.
  
ISP

 


ZNY SWAP Season Information

(ZNY SWAP STATEMENT) (Click for PDF File) (ZNY BRIEFING) (Click for PDF File)

*******************************************************
***        NY AIR ROUTE TRAFFIC CONTROL CENTER      ***
***                DAILY SWAP STATEMENT             ***
*******************************************************
NY AIR ROUTE TRAFFIC CONTROL CENTER
DAILY SWAP STATEMENT
APRIL 23, 2014
SWAP IS NOT EXPECTED

ADDT'L INFO:
AZEZU-PAEPR-HANRI(L453-M201): NO IMPACTS
DITCH: NO IMPACTS.
EAST GATES: NO IMPACTS. 
TOMORROW MORNINGS SWAP OUTLOOK: SWAP IS NOT EXPECTED.
$$
KS





N90 AirSpace Impacts

N90 ZNY Gate TSTM Forecast    SWAP Day One Forecast

SWAP Day One Forecast    SWAP Day Two Outlook

National Collaborative Convective Forecast Product (CCFP) Forecasts (Mar-Oct)


Vertical Wind Profile
Untitled Document